createdAt,value
2019-06-08T00:00:13.712Z,0
2019-06-08T00:01:25.957Z,0
2019-06-08T00:02:38.216Z,0
2019-06-08T00:03:50.473Z,0
2019-06-08T00:05:02.729Z,0
2019-06-08T00:06:14.975Z,0
2019-06-08T00:07:27.023Z,0
2019-06-08T00:08:39.483Z,0
2019-06-08T00:11:03.992Z,0
2019-06-08T00:12:16.248Z,0
2019-06-08T00:13:28.500Z,0
2019-06-08T00:14:40.761Z,0
2019-06-08T00:15:53.011Z,0
2019-06-08T00:17:05.258Z,0
2019-06-08T00:18:17.522Z,0
2019-06-08T00:19:29.773Z,0
2019-06-08T00:20:42.021Z,0
2019-06-08T00:21:54.288Z,0
2019-06-08T00:23:06.536Z,0
2019-06-08T00:24:18.785Z,0
2019-06-08T00:27:55.547Z,0
2019-06-08T00:29:07.809Z,0
2019-06-08T00:30:20.064Z,0
2019-06-08T00:31:32.327Z,0
2019-06-08T00:33:56.817Z,0
2019-06-08T00:35:09.075Z,0
2019-06-08T00:36:21.326Z,0
2019-06-08T00:37:33.582Z,0
2019-06-08T00:38:45.838Z,0
2019-06-08T00:39:58.093Z,0
2019-06-08T00:41:10.348Z,0
2019-06-08T00:42:22.595Z,0
2019-06-08T00:44:47.104Z,0
2019-06-08T00:47:11.609Z,0
2019-06-08T00:50:48.037Z,0
2019-06-08T00:52:00.063Z,0
2019-06-08T00:53:12.887Z,0
2019-06-08T00:54:25.144Z,0
2019-06-08T00:55:37.389Z,0
2019-06-08T00:58:01.902Z,0
2019-06-08T00:59:14.152Z,0
2019-06-08T01:00:26.409Z,0
2019-06-08T01:01:38.666Z,0
2019-06-08T01:02:50.919Z,0
2019-06-08T01:04:03.164Z,0
2019-06-08T01:08:52.191Z,0
2019-06-08T01:11:16.691Z,0
2019-06-08T01:12:28.949Z,0
2019-06-08T01:13:41.198Z,0
2019-06-08T01:14:53.045Z,0
2019-06-08T01:17:17.962Z,0
2019-06-08T01:18:30.212Z,0
2019-06-08T01:19:42.473Z,0
2019-06-08T01:20:54.725Z,0
2019-06-08T01:22:06.981Z,0
2019-06-08T01:23:19.233Z,0
2019-06-08T01:24:31.485Z,0
2019-06-08T01:25:43.740Z,0
2019-06-08T01:26:55.996Z,0
2019-06-08T01:28:08.246Z,0
2019-06-08T01:29:20.499Z,0
2019-06-08T01:30:32.752Z,0
2019-06-08T01:34:09.515Z,0
2019-06-08T01:35:21.768Z,0
2019-06-08T01:36:34.000Z,0
2019-06-08T01:37:46.027Z,0
2019-06-08T01:41:23.042Z,0
2019-06-08T01:43:47.542Z,0
2019-06-08T01:46:12.056Z,0
2019-06-08T01:47:24.307Z,0
2019-06-08T01:49:48.819Z,0
2019-06-08T01:51:01.071Z,0
2019-06-08T01:52:13.332Z,0
2019-06-08T01:53:25.005Z,0
2019-06-08T01:54:37.832Z,0
2019-06-08T01:55:50.091Z,0
2019-06-08T01:57:02.336Z,0
2019-06-08T01:59:26.848Z,0
2019-06-08T02:00:39.110Z,0
2019-06-08T02:01:51.359Z,0
2019-06-08T02:03:03.061Z,0
2019-06-08T02:05:28.123Z,0
2019-06-08T02:10:17.205Z,0
2019-06-08T02:11:29.409Z,4
2019-06-08T02:12:41.663Z,4
2019-06-08T02:13:53.923Z,4
2019-06-08T02:15:06.171Z,0
2019-06-08T02:16:18.401Z,4
2019-06-08T02:17:30.664Z,4
2019-06-08T02:18:42.916Z,0
2019-06-08T02:19:55.161Z,4
2019-06-08T02:22:19.679Z,4
2019-06-08T02:23:31.928Z,4
2019-06-08T02:24:44.185Z,4
2019-06-08T02:25:56.440Z,4
2019-06-08T02:27:08.694Z,8
2019-06-08T02:29:33.020Z,8
2019-06-08T02:30:45.460Z,8
2019-06-08T02:31:57.711Z,8
2019-06-08T02:33:09.968Z,12
2019-06-08T02:34:22.214Z,12
2019-06-08T02:35:34.470Z,16
2019-06-08T02:39:11.232Z,20
2019-06-08T02:40:23.483Z,24
2019-06-08T02:41:35.746Z,32
2019-06-08T02:42:48.000Z,28
2019-06-08T02:44:00.246Z,36
2019-06-08T02:45:12.507Z,40
2019-06-08T02:46:24.760Z,48
2019-06-08T02:50:01.516Z,68
2019-06-08T02:51:13.774Z,60
2019-06-08T02:53:38.279Z,56
2019-06-08T02:54:50.534Z,52
2019-06-08T02:56:02.786Z,60
2019-06-08T02:57:15.036Z,84
2019-06-08T02:59:39.544Z,120
2019-06-08T03:00:51.804Z,120
2019-06-08T03:03:16.307Z,148
2019-06-08T03:05:40.820Z,116
2019-06-08T03:06:53.071Z,116
2019-06-08T03:08:05.032Z,124
2019-06-08T03:09:17.582Z,120
2019-06-08T03:11:42.081Z,116
2019-06-08T03:12:54.337Z,124
2019-06-08T03:14:06.595Z,132
2019-06-08T03:16:31.092Z,212
2019-06-08T03:17:43.353Z,216
2019-06-08T03:18:55.607Z,168
2019-06-08T03:21:20.112Z,196
2019-06-08T03:22:32.362Z,240
2019-06-08T03:24:56.875Z,288
2019-06-08T03:26:09.121Z,272
2019-06-08T03:27:21.376Z,248
2019-06-08T03:28:33.627Z,232
2019-06-08T03:29:45.890Z,204
2019-06-08T03:32:10.394Z,196
2019-06-08T03:33:22.644Z,196
2019-06-08T03:34:34.906Z,188
2019-06-08T03:35:47.015Z,180
2019-06-08T03:38:11.659Z,204
2019-06-08T03:40:36.163Z,160
2019-06-08T03:44:12.092Z,140
2019-06-08T03:45:25.181Z,136
2019-06-08T03:47:49.691Z,156
2019-06-08T03:50:14.194Z,260
2019-06-08T03:51:26.446Z,348
2019-06-08T03:52:38.709Z,440
2019-06-08T03:53:50.955Z,508
2019-06-08T03:55:03.213Z,552
2019-06-08T03:56:15.462Z,552
2019-06-08T03:59:52.227Z,420
2019-06-08T04:01:04.473Z,576
2019-06-08T04:03:28.098Z,772
2019-06-08T04:07:05.074Z,724
2019-06-08T04:08:17.996Z,820
2019-06-08T04:10:42.509Z,1080
2019-06-08T04:11:54.757Z,1136
2019-06-08T04:13:07.014Z,1140
2019-06-08T04:16:43.774Z,1004
2019-06-08T04:17:56.023Z,796
2019-06-08T04:19:08.276Z,708
2019-06-08T04:21:32.784Z,988
2019-06-08T04:22:45.004Z,1280
2019-06-08T04:23:57.293Z,1300
2019-06-08T04:25:09.548Z,1192
2019-06-08T04:26:21.816Z,1220
2019-06-08T04:27:34.057Z,1496
2019-06-08T04:28:46.310Z,1764
2019-06-08T04:29:58.557Z,1848
2019-06-08T04:32:23.068Z,2332
2019-06-08T04:34:47.574Z,2404
2019-06-08T04:38:24.336Z,2476
2019-06-08T04:39:36.590Z,2536
2019-06-08T04:40:48.847Z,2464
2019-06-08T04:43:13.348Z,2272
2019-06-08T04:45:37.868Z,1892
2019-06-08T04:46:50.113Z,2008
2019-06-08T04:48:02.365Z,2180
2019-06-08T04:50:26.868Z,2608
2019-06-08T04:51:39.128Z,2580
2019-06-08T04:52:51.376Z,2648
2019-06-08T04:54:03.628Z,2792
2019-06-08T04:55:15.887Z,2768
2019-06-08T04:57:40.390Z,3104
2019-06-08T05:01:17.154Z,3468
2019-06-08T05:06:06.016Z,2720
2019-06-08T05:07:18.416Z,2764
2019-06-08T05:08:30.667Z,2988
2019-06-08T05:10:55.170Z,3208
2019-06-08T05:12:07.417Z,3360
2019-06-08T05:13:19.668Z,3308
2019-06-08T05:14:31.918Z,3248
2019-06-08T05:15:44.176Z,3008
2019-06-08T05:20:33.181Z,2292
2019-06-08T05:24:09.930Z,2012
2019-06-08T05:25:22.185Z,2012
2019-06-08T05:26:34.431Z,2096
2019-06-08T05:27:46.689Z,2200
2019-06-08T05:28:58.929Z,2272
2019-06-08T05:31:23.441Z,2584
2019-06-08T05:32:35.688Z,2700
2019-06-08T05:35:00.186Z,3096
2019-06-08T05:37:24.698Z,3156
2019-06-08T05:38:36.942Z,3188
2019-06-08T05:39:49.197Z,3240
2019-06-08T05:41:01.444Z,3284
2019-06-08T05:42:13.697Z,3320
2019-06-08T05:43:25.950Z,3356
2019-06-08T05:44:38.197Z,3396
2019-06-08T05:45:50.450Z,3436
2019-06-08T05:47:02.708Z,3484
2019-06-08T05:48:14.950Z,3520
2019-06-08T05:49:27.203Z,3560
2019-06-08T05:50:39.457Z,3596
2019-06-08T05:54:16.209Z,3736
2019-06-08T05:57:52.965Z,3872
2019-06-08T05:59:05.214Z,3916
2019-06-08T06:00:17.464Z,3952
2019-06-08T06:02:41.968Z,4032
2019-06-08T06:03:54.215Z,4088
2019-06-08T06:05:06.474Z,4144
2019-06-08T06:06:18.725Z,4196
2019-06-08T06:07:30.972Z,4284
2019-06-08T06:09:55.472Z,4564
2019-06-08T06:12:19.972Z,5088
2019-06-08T06:14:44.487Z,5872
2019-06-08T06:15:56.735Z,6460
2019-06-08T06:17:08.977Z,7108
2019-06-08T06:18:21.238Z,7896
2019-06-08T06:19:33.478Z,9216
2019-06-08T06:20:45.738Z,10472
2019-06-08T06:21:57.989Z,10112
2019-06-08T06:23:10.233Z,8132
2019-06-08T06:24:22.484Z,8416
2019-06-08T06:25:34.739Z,9584
2019-06-08T06:26:46.995Z,10384
2019-06-08T06:27:59.244Z,10368
2019-06-08T06:29:11.497Z,8716
2019-06-08T06:30:23.749Z,7124
2019-06-08T06:31:35.997Z,6108
2019-06-08T06:32:48.250Z,5240
2019-06-08T06:34:00.050Z,4608
2019-06-08T06:36:25.006Z,3584
2019-06-08T06:37:37.266Z,4080
2019-06-08T06:38:49.511Z,4956
2019-06-08T06:40:01.758Z,4148
2019-06-08T06:42:26.262Z,8780
2019-06-08T06:43:38.518Z,9956
2019-06-08T06:44:50.766Z,10336
2019-06-08T06:46:03.014Z,9388
2019-06-08T06:48:27.517Z,7788
2019-06-08T06:49:39.777Z,8024
2019-06-08T06:50:52.027Z,9264
2019-06-08T06:53:16.534Z,11672
2019-06-08T06:54:28.779Z,12564
2019-06-08T06:55:41.033Z,13444
2019-06-08T06:58:05.053Z,14208
2019-06-08T06:59:17.801Z,15276
2019-06-08T07:00:30.039Z,14872
2019-06-08T07:01:42.288Z,12008
2019-06-08T07:02:54.542Z,11564
2019-06-08T07:04:06.786Z,10604
2019-06-08T07:06:31.292Z,8532
2019-06-08T07:08:55.792Z,7812
2019-06-08T07:17:21.055Z,10808
2019-06-08T07:19:46.053Z,10212
2019-06-08T07:20:58.310Z,10340
2019-06-08T07:22:10.560Z,10464
2019-06-08T07:24:35.062Z,10032
2019-06-08T07:25:47.311Z,10768
2019-06-08T07:26:59.564Z,11408
2019-06-08T07:28:11.816Z,11260
2019-06-08T07:29:24.070Z,11484
2019-06-08T07:30:36.317Z,12192
2019-06-08T07:31:48.564Z,12592
2019-06-08T07:33:00.082Z,12196
2019-06-08T07:34:13.067Z,12172
2019-06-08T07:35:25.318Z,11928
2019-06-08T07:37:49.827Z,11036
2019-06-08T07:39:02.073Z,10344
2019-06-08T07:42:38.827Z,7436
2019-06-08T07:43:51.078Z,7372
2019-06-08T07:45:03.327Z,7484
2019-06-08T07:47:27.830Z,7740
2019-06-08T07:48:40.089Z,7340
2019-06-08T07:49:52.335Z,6628
2019-06-08T07:52:16.834Z,5588
2019-06-08T07:53:29.085Z,5440
2019-06-08T07:54:41.342Z,5208
2019-06-08T07:55:53.058Z,4792
2019-06-08T07:58:18.085Z,5304
2019-06-08T07:59:30.346Z,5560
2019-06-08T08:00:42.600Z,5852
2019-06-08T08:05:31.593Z,10340
2019-06-08T08:06:43.850Z,10952
2019-06-08T08:09:08.358Z,10140
2019-06-08T08:10:20.611Z,11092
2019-06-08T08:11:32.850Z,12404
2019-06-08T08:12:45.011Z,12112
2019-06-08T08:13:57.354Z,10500
2019-06-08T08:16:21.862Z,7280
2019-06-08T08:19:58.617Z,4984
2019-06-08T08:22:23.121Z,4316
2019-06-08T08:23:35.371Z,4624
2019-06-08T08:24:47.619Z,4744
2019-06-08T08:25:59.873Z,4948
2019-06-08T08:27:12.123Z,5332
2019-06-08T08:28:24.383Z,6064
2019-06-08T08:30:48.879Z,7700
2019-06-08T08:32:01.129Z,8560
2019-06-08T08:33:13.380Z,8280
2019-06-08T08:36:50.139Z,9608
2019-06-08T08:38:02.387Z,9304
2019-06-08T08:40:26.900Z,10384
2019-06-08T08:42:51.396Z,9188
2019-06-08T08:44:03.647Z,8488
2019-06-08T08:46:28.148Z,6332
2019-06-08T08:47:40.408Z,5864
2019-06-08T08:48:52.652Z,5864
2019-06-08T08:50:04.909Z,5616
2019-06-08T08:52:29.410Z,4684
2019-06-08T08:54:53.091Z,4736
2019-06-08T08:57:18.414Z,6632
2019-06-08T08:59:42.918Z,8508
2019-06-08T09:00:55.177Z,9876
2019-06-08T09:02:07.420Z,9896
2019-06-08T09:03:19.680Z,9052
2019-06-08T09:04:31.927Z,10448
2019-06-08T09:05:44.177Z,12272
2019-06-08T09:06:56.429Z,11920
2019-06-08T09:08:08.683Z,11588
2019-06-08T09:09:20.931Z,12620
2019-06-08T09:14:09.942Z,10924
2019-06-08T09:15:22.201Z,11176
2019-06-08T09:16:34.440Z,10544
2019-06-08T09:18:58.942Z,10384
2019-06-08T09:20:11.019Z,9724
2019-06-08T09:22:35.701Z,8348
2019-06-08T09:28:36.959Z,10636
2019-06-08T09:31:01.046Z,10896
2019-06-08T09:33:25.096Z,14644
2019-06-08T09:34:38.221Z,19584
2019-06-08T09:35:50.462Z,26240
2019-06-08T09:37:02.718Z,20256
2019-06-08T09:38:14.982Z,17216
2019-06-08T09:40:39.478Z,23200
2019-06-08T09:41:51.729Z,19744
2019-06-08T09:43:03.976Z,16800
2019-06-08T09:44:16.222Z,14420
2019-06-08T09:45:28.485Z,13128
2019-06-08T09:46:40.732Z,13068
2019-06-08T09:49:05.229Z,11192
2019-06-08T09:51:29.736Z,10780
2019-06-08T09:52:41.983Z,12020
2019-06-08T09:55:06.481Z,18176
2019-06-08T09:57:30.991Z,13048
2019-06-08T09:58:43.240Z,10876
2019-06-08T09:59:55.493Z,10484
2019-06-08T10:02:19.992Z,8952
2019-06-08T10:03:32.268Z,9488
2019-06-08T10:04:44.493Z,10788
2019-06-08T10:08:21.249Z,12852
2019-06-08T10:09:33.502Z,15188
2019-06-08T10:10:45.762Z,15580
2019-06-08T10:13:10.259Z,25120
2019-06-08T10:14:22.514Z,23840
2019-06-08T10:15:34.763Z,25152
2019-06-08T10:16:47.001Z,24992
2019-06-08T10:19:11.518Z,16180
2019-06-08T10:20:23.076Z,12872
2019-06-08T10:21:36.020Z,10084
2019-06-08T10:25:12.774Z,10264
2019-06-08T10:26:25.026Z,9676
2019-06-08T10:27:37.278Z,8660
2019-06-08T10:30:01.784Z,9828
2019-06-08T10:31:14.047Z,10184
2019-06-08T10:32:26.284Z,8776
2019-06-08T10:33:38.052Z,9404
2019-06-08T10:34:50.783Z,10596
2019-06-08T10:36:03.033Z,12508
2019-06-08T10:37:15.286Z,15108
2019-06-08T10:40:52.036Z,31648
2019-06-08T10:43:16.545Z,32544
2019-06-08T10:45:41.049Z,28992
2019-06-08T10:46:53.299Z,31328
2019-06-08T10:48:05.553Z,24864
2019-06-08T10:49:17.801Z,65280
2019-06-08T10:50:30.045Z,21504
2019-06-08T10:51:42.003Z,28000
2019-06-08T10:52:54.557Z,64832
2019-06-08T10:54:06.807Z,51936
2019-06-08T10:56:31.297Z,37376
2019-06-08T10:57:43.556Z,47456
2019-06-08T10:58:55.799Z,51840
2019-06-08T11:01:20.308Z,56480
2019-06-08T11:02:32.558Z,37568
2019-06-08T11:03:44.812Z,76288
2019-06-08T11:04:57.058Z,40576
2019-06-08T11:07:21.561Z,124832
2019-06-08T11:08:33.081Z,103296
2019-06-08T11:09:46.006Z,83680
2019-06-08T11:13:22.823Z,82304
2019-06-08T11:14:35.078Z,86496
2019-06-08T11:15:47.328Z,136224
2019-06-08T11:20:36.326Z,99648
2019-06-08T11:21:48.584Z,54560
2019-06-08T11:24:13.090Z,20704
2019-06-08T11:25:25.339Z,15760
2019-06-08T11:26:37.596Z,16864
2019-06-08T11:27:49.843Z,17696
2019-06-08T11:29:02.086Z,17152
2019-06-08T11:30:14.345Z,16896
2019-06-08T11:33:51.092Z,19040
2019-06-08T11:35:03.035Z,24128
2019-06-08T11:37:27.855Z,66464
2019-06-08T11:39:52.035Z,126720
2019-06-08T11:42:16.849Z,93632
2019-06-08T11:43:29.109Z,131904
2019-06-08T11:44:41.035Z,121984
2019-06-08T11:47:05.862Z,118688
2019-06-08T11:48:18.120Z,107872
2019-06-08T11:50:42.617Z,54688
2019-06-08T11:51:54.870Z,65312
2019-06-08T11:53:07.001Z,55104
2019-06-08T11:56:43.088Z,63520
2019-06-08T11:59:08.381Z,23456
2019-06-08T12:00:20.636Z,26208
2019-06-08T12:01:32.889Z,24896
2019-06-08T12:02:45.133Z,22272
2019-06-08T12:03:57.396Z,26560
2019-06-08T12:05:09.637Z,31040
2019-06-08T12:06:21.891Z,34112
2019-06-08T12:07:34.015Z,49056
2019-06-08T12:08:46.402Z,47840
2019-06-08T12:11:10.896Z,36064
2019-06-08T12:13:35.404Z,43168
2019-06-08T12:14:47.006Z,52928
2019-06-08T12:15:59.909Z,31008
2019-06-08T12:17:12.160Z,33728
2019-06-08T12:19:36.661Z,67648
2019-06-08T12:20:48.907Z,73696
2019-06-08T12:24:25.666Z,92608
2019-06-08T12:25:37.091Z,133536
2019-06-08T12:26:50.170Z,121728
2019-06-08T12:29:14.672Z,101312
2019-06-08T12:31:39.176Z,97504
2019-06-08T12:32:51.429Z,116512
2019-06-08T12:34:03.068Z,120480
2019-06-08T12:35:15.926Z,126272
2019-06-08T12:37:40.433Z,129312
2019-06-08T12:41:17.189Z,131840
2019-06-08T12:42:29.044Z,133536
2019-06-08T12:44:53.950Z,135808
2019-06-08T12:46:06.201Z,136896
2019-06-08T12:47:18.458Z,136640
2019-06-08T12:49:42.963Z,135232
2019-06-08T12:50:55.219Z,133504
2019-06-08T12:52:07.461Z,132768
2019-06-08T12:55:44.228Z,135424
2019-06-08T12:56:56.479Z,137312
2019-06-08T12:58:08.736Z,139040
2019-06-08T12:59:20.098Z,135328
2019-06-08T13:01:45.004Z,132032
2019-06-08T13:02:57.740Z,128352
2019-06-08T13:06:34.507Z,134176
2019-06-08T13:07:46.754Z,131008
2019-06-08T13:08:59.007Z,126976
2019-06-08T13:10:11.258Z,126048
2019-06-08T13:11:23.508Z,121600
2019-06-08T13:12:35.760Z,123648
2019-06-08T13:13:48.016Z,92512
2019-06-08T13:15:00.277Z,115488
2019-06-08T13:17:24.771Z,129664
2019-06-08T13:18:37.029Z,128576
2019-06-08T13:19:49.279Z,128032
2019-06-08T13:21:01.534Z,125920
2019-06-08T13:23:26.041Z,122720
2019-06-08T13:24:38.296Z,125216
2019-06-08T13:25:50.549Z,125152
2019-06-08T13:28:15.052Z,121376
2019-06-08T13:29:27.309Z,119808
2019-06-08T13:31:51.008Z,45824
2019-06-08T13:33:04.075Z,127424
2019-06-08T13:34:16.325Z,127200
2019-06-08T13:35:28.578Z,127104
2019-06-08T13:36:40.830Z,71424
2019-06-08T13:37:53.090Z,134752
2019-06-08T13:39:05.033Z,131936
2019-06-08T13:40:17.589Z,102304
2019-06-08T13:41:29.839Z,129888
2019-06-08T13:43:54.353Z,124768
2019-06-08T13:45:06.601Z,122656
2019-06-08T13:46:18.851Z,118400
2019-06-08T13:47:31.116Z,115296
2019-06-08T13:49:55.614Z,106848
2019-06-08T13:51:07.863Z,113248
2019-06-08T13:52:20.001Z,114368
2019-06-08T13:53:32.369Z,110048
2019-06-08T13:55:56.882Z,115520
2019-06-08T13:57:09.130Z,120256
2019-06-08T13:58:21.394Z,121792
2019-06-08T13:59:33.641Z,115936
2019-06-08T14:01:58.145Z,93024
2019-06-08T14:03:10.400Z,88704
2019-06-08T14:04:22.654Z,87200
2019-06-08T14:05:34.906Z,86080
2019-06-08T14:06:47.154Z,88096
2019-06-08T14:07:59.408Z,86848
2019-06-08T14:09:11.667Z,87680
2019-06-08T14:11:36.173Z,72544
2019-06-08T14:12:48.432Z,31680
2019-06-08T14:14:00.068Z,10332
2019-06-08T14:16:25.179Z,8332
2019-06-08T14:17:37.438Z,7584
2019-06-08T14:20:01.934Z,6896
2019-06-08T14:21:14.190Z,6872
2019-06-08T14:22:26.442Z,6856
2019-06-08T14:23:38.695Z,6748
2019-06-08T14:24:50.948Z,6664
2019-06-08T14:26:03.191Z,6632
2019-06-08T14:28:27.702Z,5708
2019-06-08T14:29:39.948Z,7184
2019-06-08T14:33:16.703Z,6580
2019-06-08T14:35:41.208Z,8328
2019-06-08T14:38:05.711Z,6656
2019-06-08T14:40:30.217Z,5844
2019-06-08T14:44:06.976Z,4596
2019-06-08T14:45:19.219Z,4684
2019-06-08T14:46:31.471Z,6380
2019-06-08T14:47:43.727Z,6340
2019-06-08T14:48:55.979Z,6236
2019-06-08T14:50:08.237Z,6136
2019-06-08T14:51:20.491Z,5944
2019-06-08T14:56:09.504Z,8080
2019-06-08T14:59:46.266Z,11192
2019-06-08T15:00:58.520Z,12260
2019-06-08T15:02:10.768Z,12552
2019-06-08T15:03:23.001Z,10820
2019-06-08T15:04:35.266Z,7560
2019-06-08T15:06:59.779Z,5664
2019-06-08T15:08:12.029Z,4008
2019-06-08T15:09:24.285Z,6420
2019-06-08T15:11:48.783Z,8908
2019-06-08T15:14:13.433Z,7072
2019-06-08T15:16:37.834Z,5736
2019-06-08T15:17:50.049Z,5528
2019-06-08T15:20:14.055Z,5348
2019-06-08T15:22:39.116Z,5272
2019-06-08T15:25:03.057Z,5292
2019-06-08T15:27:28.075Z,4972
2019-06-08T15:28:40.326Z,4884
2019-06-08T15:31:04.840Z,3444
2019-06-08T15:32:17.088Z,4740
2019-06-08T15:33:29.335Z,4684
2019-06-08T15:34:41.595Z,4668
2019-06-08T15:35:53.842Z,3564
2019-06-08T15:38:18.360Z,4764
2019-06-08T15:39:30.601Z,4980
2019-06-08T15:40:42.085Z,4928
2019-06-08T15:41:55.109Z,4796
2019-06-08T15:45:31.087Z,4328
2019-06-08T15:46:44.125Z,4224
2019-06-08T15:47:56.379Z,4164
2019-06-08T15:50:20.886Z,2692
2019-06-08T15:52:45.390Z,4032
2019-06-08T15:53:57.651Z,3972
2019-06-08T15:55:09.893Z,3752
2019-06-08T15:56:22.152Z,4020
2019-06-08T15:57:34.407Z,4856
2019-06-08T15:59:58.925Z,4336
2019-06-08T16:01:11.170Z,4272
2019-06-08T16:02:23.416Z,4164
2019-06-08T16:03:35.678Z,3152
2019-06-08T16:06:00.179Z,3400
2019-06-08T16:08:24.678Z,4872
2019-06-08T16:10:49.187Z,5084
2019-06-08T16:13:13.703Z,3424
2019-06-08T16:14:25.949Z,3168
2019-06-08T16:16:50.457Z,3532
2019-06-08T16:18:02.713Z,3588
2019-06-08T16:19:14.967Z,3688
2019-06-08T16:20:27.223Z,3608
2019-06-08T16:21:39.465Z,3576
2019-06-08T16:22:51.722Z,3556
2019-06-08T16:24:03.971Z,3568
2019-06-08T16:26:28.485Z,3548
2019-06-08T16:27:40.739Z,3484
2019-06-08T16:28:52.990Z,3380
2019-06-08T16:30:05.242Z,3368
2019-06-08T16:32:29.748Z,3364
2019-06-08T16:33:42.000Z,3272
2019-06-08T16:34:54.002Z,3372
2019-06-08T16:36:06.510Z,3596
2019-06-08T16:39:43.267Z,3340
2019-06-08T16:40:55.522Z,3196
2019-06-08T16:44:32.278Z,3052
2019-06-08T16:46:56.786Z,3068
2019-06-08T16:48:09.004Z,3064
2019-06-08T16:50:33.542Z,3072
2019-06-08T16:52:58.056Z,2932
2019-06-08T16:54:10.306Z,2876
2019-06-08T16:55:22.561Z,2864
2019-06-08T16:56:34.812Z,2860
2019-06-08T17:00:11.572Z,3024
2019-06-08T17:03:48.337Z,2728
2019-06-08T17:06:12.844Z,2640
2019-06-08T17:07:25.095Z,2636
2019-06-08T17:08:37.341Z,2624
2019-06-08T17:09:49.601Z,2664
2019-06-08T17:11:01.854Z,2648
2019-06-08T17:12:14.101Z,2584
2019-06-08T17:13:26.362Z,2576
2019-06-08T17:21:52.130Z,2496
2019-06-08T17:26:41.147Z,2260
2019-06-08T17:27:53.400Z,2256
2019-06-08T17:29:05.649Z,2244
2019-06-08T17:30:17.906Z,2212
2019-06-08T17:32:42.418Z,2152
2019-06-08T17:33:54.663Z,2096
2019-06-08T17:35:06.916Z,2092
2019-06-08T17:36:19.001Z,2076
2019-06-08T17:38:43.006Z,1996
2019-06-08T17:39:55.926Z,1940
2019-06-08T17:41:08.187Z,1748
2019-06-08T17:42:20.432Z,1600
2019-06-08T17:43:32.699Z,1600
2019-06-08T17:44:44.939Z,1756
2019-06-08T17:48:21.707Z,1676
2019-06-08T17:49:33.009Z,1560
2019-06-08T17:50:46.211Z,1556
2019-06-08T17:51:58.462Z,1720
2019-06-08T17:55:35.223Z,1632
2019-06-08T17:56:47.469Z,1624
2019-06-08T17:59:11.979Z,1624
2019-06-08T18:00:24.230Z,1620
2019-06-08T18:01:36.489Z,1580
2019-06-08T18:02:48.738Z,1516
2019-06-08T18:06:25.501Z,1552
2019-06-08T18:07:38.092Z,1532
2019-06-08T18:10:02.258Z,1536
2019-06-08T18:11:14.510Z,1520
2019-06-08T18:12:26.760Z,1512
2019-06-08T18:14:51.271Z,1344
2019-06-08T18:16:03.522Z,1324
2019-06-08T18:17:15.777Z,1284
2019-06-08T18:18:28.030Z,1268
2019-06-08T18:20:52.531Z,1156
2019-06-08T18:22:04.787Z,1184
2019-06-08T18:24:29.296Z,1148
2019-06-08T18:25:41.545Z,1124
2019-06-08T18:29:18.301Z,1048
2019-06-08T18:30:30.559Z,1032
2019-06-08T18:32:55.061Z,988
2019-06-08T18:34:07.310Z,964
2019-06-08T18:35:19.565Z,944
2019-06-08T18:37:44.069Z,908
2019-06-08T18:38:56.003Z,888
2019-06-08T18:42:33.079Z,828
2019-06-08T18:43:45.338Z,812
2019-06-08T18:44:57.586Z,788
2019-06-08T18:46:09.848Z,768
2019-06-08T18:47:22.102Z,748
2019-06-08T18:48:34.351Z,724
2019-06-08T18:50:58.853Z,680
2019-06-08T18:53:23.359Z,632
2019-06-08T18:54:35.612Z,612
2019-06-08T18:55:47.868Z,588
2019-06-08T18:57:00.011Z,564
2019-06-08T18:59:24.629Z,516
2019-06-08T19:01:49.126Z,476
2019-06-08T19:04:13.644Z,432
2019-06-08T19:05:25.886Z,416
2019-06-08T19:06:38.142Z,396
2019-06-08T19:07:50.392Z,376
2019-06-08T19:10:14.900Z,336
2019-06-08T19:11:27.015Z,320
2019-06-08T19:12:39.411Z,296
2019-06-08T19:15:03.916Z,264
2019-06-08T19:17:28.422Z,228
2019-06-08T19:18:40.678Z,212
2019-06-08T19:19:52.936Z,200
2019-06-08T19:21:05.182Z,184
2019-06-08T19:22:17.435Z,172
2019-06-08T19:23:29.692Z,160
2019-06-08T19:24:41.944Z,144
2019-06-08T19:27:06.453Z,120
2019-06-08T19:28:18.701Z,112
2019-06-08T19:29:30.959Z,100
2019-06-08T19:30:43.213Z,92
2019-06-08T19:31:55.462Z,80
2019-06-08T19:33:07.719Z,76
2019-06-08T19:37:56.731Z,48
2019-06-08T19:39:08.988Z,44
2019-06-08T19:42:45.749Z,32
2019-06-08T19:43:57.993Z,24
2019-06-08T19:45:10.254Z,24
2019-06-08T19:46:22.504Z,20
2019-06-08T19:48:47.012Z,12
2019-06-08T19:51:11.522Z,12
2019-06-08T19:52:23.771Z,12
2019-06-08T19:54:48.274Z,8
2019-06-08T19:56:00.541Z,8
2019-06-08T19:57:12.795Z,4
2019-06-08T19:58:25.052Z,4
2019-06-08T19:59:37.290Z,8
2019-06-08T20:04:26.312Z,4
2019-06-08T20:05:38.564Z,4
2019-06-08T20:09:15.323Z,0
2019-06-08T20:10:27.574Z,0
2019-06-08T20:11:39.827Z,0
2019-06-08T20:12:52.008Z,0
2019-06-08T20:15:16.583Z,0
2019-06-08T20:16:28.083Z,0
2019-06-08T20:17:41.010Z,0
2019-06-08T20:18:53.355Z,0
2019-06-08T20:21:17.855Z,0
2019-06-08T20:22:30.104Z,0
2019-06-08T20:23:42.003Z,0
2019-06-08T20:26:06.868Z,0
2019-06-08T20:27:19.125Z,0
2019-06-08T20:28:31.382Z,0
2019-06-08T20:30:55.889Z,0
2019-06-08T20:32:08.134Z,0
2019-06-08T20:33:20.393Z,0
2019-06-08T20:34:32.646Z,0
2019-06-08T20:36:57.151Z,0
2019-06-08T20:39:21.660Z,0
2019-06-08T20:40:34.028Z,0
2019-06-08T20:41:46.017Z,0
2019-06-08T20:42:58.459Z,0
2019-06-08T20:44:10.676Z,0
2019-06-08T20:45:22.927Z,0
2019-06-08T20:46:35.017Z,0
2019-06-08T20:47:47.437Z,0
2019-06-08T20:48:59.690Z,0
2019-06-08T20:50:11.094Z,0
2019-06-08T20:51:24.197Z,0
2019-06-08T20:52:36.465Z,0
2019-06-08T20:53:48.703Z,0
2019-06-08T20:55:01.188Z,0
2019-06-08T20:56:13.212Z,0
2019-06-08T20:58:37.725Z,0
2019-06-08T21:01:02.300Z,0
2019-06-08T21:02:14.473Z,0
2019-06-08T21:03:26.732Z,0
2019-06-08T21:04:39.061Z,0
2019-06-08T21:05:51.239Z,0
2019-06-08T21:07:03.515Z,0
2019-06-08T21:08:15.750Z,0
2019-06-08T21:09:28.005Z,0
2019-06-08T21:10:40.256Z,0
2019-06-08T21:11:52.506Z,0
2019-06-08T21:14:17.011Z,0
2019-06-08T21:15:29.270Z,0
2019-06-08T21:16:41.529Z,0
2019-06-08T21:17:53.780Z,0
2019-06-08T21:21:30.537Z,0
2019-06-08T21:22:42.796Z,0
2019-06-08T21:25:07.304Z,0
2019-06-08T21:26:19.546Z,0
2019-06-08T21:27:31.803Z,0
2019-06-08T21:34:45.325Z,0
2019-06-08T21:35:57.057Z,0
2019-06-08T21:37:09.835Z,0
2019-06-08T21:38:22.088Z,0
2019-06-08T21:39:34.340Z,0
2019-06-08T21:40:46.585Z,0
2019-06-08T21:41:58.845Z,0
2019-06-08T21:46:47.854Z,0
2019-06-08T21:48:00.108Z,0
2019-06-08T21:52:49.125Z,0
2019-06-08T21:54:01.384Z,0
2019-06-08T21:55:13.634Z,0
2019-06-08T21:57:38.145Z,0
2019-06-08T21:58:50.391Z,0
2019-06-08T22:01:14.903Z,0
2019-06-08T22:02:27.015Z,0
2019-06-08T22:03:39.406Z,0
2019-06-08T22:04:51.655Z,0
2019-06-08T22:06:03.917Z,0
2019-06-08T22:09:40.665Z,0
2019-06-08T22:12:05.178Z,0
2019-06-08T22:14:29.685Z,0
2019-06-08T22:15:41.941Z,0
2019-06-08T22:16:54.193Z,0
2019-06-08T22:19:18.702Z,0
2019-06-08T22:20:30.954Z,0
2019-06-08T22:21:43.021Z,0
2019-06-08T22:22:55.456Z,0
2019-06-08T22:24:07.715Z,0
2019-06-08T22:25:19.971Z,0
2019-06-08T22:27:44.474Z,0
2019-06-08T22:28:56.727Z,0
2019-06-08T22:30:08.978Z,0
2019-06-08T22:31:21.242Z,0
2019-06-08T22:33:45.743Z,0
2019-06-08T22:34:57.999Z,0
2019-06-08T22:36:10.248Z,0
2019-06-08T22:37:22.503Z,0
2019-06-08T22:38:34.763Z,0
2019-06-08T22:39:47.000Z,0
2019-06-08T22:40:59.261Z,0
2019-06-08T22:42:11.052Z,0
2019-06-08T22:43:23.076Z,0
2019-06-08T22:45:48.272Z,0
2019-06-08T22:47:00.535Z,0
2019-06-08T22:49:25.035Z,0
2019-06-08T22:50:37.300Z,0
2019-06-08T22:51:49.545Z,0
2019-06-08T22:53:01.802Z,0
2019-06-08T22:54:14.005Z,0
2019-06-08T22:57:50.818Z,0
2019-06-08T22:59:03.062Z,0
2019-06-08T23:00:15.317Z,0
2019-06-08T23:02:39.823Z,0
2019-06-08T23:03:52.081Z,0